Time;durP1;ratioP1;P1;durP2;ratioP2;P2;SDS_P1;SDS_P2;PMS_P1;PMS_P2;Temp;Humidity;BMP_temperature;BMP_pressure;BME280_temperature;BME280_humidity;BME280_pressure;Samples;Min_cycle;Max_cycle;Signal;HPM_P1;HPM_P2
2023/12/26 07:58:57;;;;;;;2.07;0.30;;;9.70;99.90;;;;;;4047764;23;20726;-74
2023/12/26 08:01:26;;;;;;;0.90;0.50;;;9.70;99.90;;;;;;4879662;29;20240;-74
2023/12/26 08:03:54;;;;;;;0.87;0.40;;;9.60;99.90;;;;;;4879469;29;20211;-73
2023/12/26 08:06:23;;;;;;;6.23;0.70;;;9.50;99.90;;;;;;4879807;29;20250;-74
2023/12/26 08:08:50;;;;;;;4.07;0.47;;;9.60;99.90;;;;;;4880236;29;20279;-74
2023/12/26 08:11:18;;;;;;;1.40;0.43;;;9.60;99.90;;;;;;4879839;29;20211;-74
2023/12/26 08:13:45;;;;;;;2.57;0.80;;;9.60;99.90;;;;;;4880022;29;20215;-74
2023/12/26 08:16:14;;;;;;;2.10;0.37;;;9.60;99.90;;;;;;4879765;29;20380;-74
2023/12/26 08:18:43;;;;;;;3.13;1.33;;;9.50;99.90;;;;;;4880155;29;20211;-74
2023/12/26 08:21:10;;;;;;;3.23;1.00;;;9.60;99.90;;;;;;4879554;29;20250;-74
2023/12/26 08:23:38;;;;;;;2.63;0.53;;;9.60;99.90;;;;;;4879655;29;20265;-74
2023/12/26 08:26:11;;;;;;;3.17;0.40;;;9.60;99.90;;;;;;4879402;29;20643;-74
2023/12/26 08:28:38;;;;;;;2.80;1.70;;;9.60;99.90;;;;;;4879432;29;20211;-74
2023/12/26 08:31:05;;;;;;;1.33;0.40;;;9.60;99.90;;;;;;4876563;29;20211;-74
2023/12/26 08:33:37;;;;;;;2.73;0.40;;;9.60;99.90;;;;;;4878233;29;20207;-74
2023/12/26 08:36:05;;;;;;;2.97;0.37;;;9.60;99.90;;;;;;4877334;29;20279;-74
2023/12/26 08:38:32;;;;;;;2.00;0.70;;;9.60;99.90;;;;;;4882738;29;20207;-74
2023/12/26 08:40:59;;;;;;;2.10;0.30;;;9.50;99.90;;;;;;4882803;29;20203;-74
2023/12/26 08:43:28;;;;;;;3.47;0.50;;;9.50;99.90;;;;;;4882900;29;20215;-73
2023/12/26 08:45:55;;;;;;;3.97;0.47;;;9.50;99.90;;;;;;4882618;29;20353;-73
2023/12/26 08:48:22;;;;;;;1.43;0.40;;;9.60;99.90;;;;;;4883120;29;20221;-72
2023/12/26 08:50:51;;;;;;;3.30;0.50;;;9.70;99.90;;;;;;4885307;29;20215;-73
2023/12/26 08:53:19;;;;;;;4.53;0.37;;;9.80;99.90;;;;;;4894004;29;20275;-73
2023/12/26 08:55:47;;;;;;;2.40;0.53;;;9.80;99.90;;;;;;4894788;29;20243;-73
2023/12/26 08:58:14;;;;;;;1.30;0.50;;;9.90;99.90;;;;;;4894886;29;20219;-74
2023/12/26 09:00:42;;;;;;;4.93;0.60;;;9.80;99.90;;;;;;4888177;29;20219;-74
2023/12/26 09:03:09;;;;;;;1.37;0.33;;;9.90;99.90;;;;;;4884102;29;20239;-74
2023/12/26 09:05:36;;;;;;;4.00;0.50;;;10.00;99.90;;;;;;4884912;29;20713;-75
2023/12/26 09:08:05;;;;;;;2.07;0.23;;;10.10;99.90;;;;;;4884630;29;20585;-74
2023/12/26 09:10:32;;;;;;;3.87;0.50;;;10.10;99.90;;;;;;4883032;29;20215;-73
2023/12/26 09:12:59;;;;;;;5.23;0.70;;;10.20;99.90;;;;;;4882467;29;20302;-73
2023/12/26 09:15:26;;;;;;;2.67;0.60;;;10.10;99.90;;;;;;4880020;29;20250;-76
2023/12/26 09:17:54;;;;;;;3.67;0.40;;;10.10;99.90;;;;;;4885766;29;20207;-75
2023/12/26 09:20:21;;;;;;;1.87;0.40;;;10.30;99.90;;;;;;4881142;29;20253;-76
2023/12/26 09:22:48;;;;;;;3.93;0.67;;;10.30;99.90;;;;;;4881044;29;20679;-75
2023/12/26 09:25:17;;;;;;;4.87;0.77;;;10.40;99.90;;;;;;4880600;29;20238;-73
2023/12/26 09:27:44;;;;;;;3.80;0.80;;;10.50;99.90;;;;;;4880927;29;20203;-74
2023/12/26 09:30:13;;;;;;;3.53;0.60;;;10.60;99.90;;;;;;4881563;29;20215;-74
2023/12/26 09:32:40;;;;;;;5.17;0.60;;;10.60;99.90;;;;;;4881779;29;20261;-74
2023/12/26 09:35:09;;;;;;;2.87;0.40;;;10.60;99.90;;;;;;4881215;29;20231;-74
2023/12/26 09:37:38;;;;;;;2.83;1.10;;;10.60;99.90;;;;;;4881641;29;20646;-74
2023/12/26 09:40:08;;;;;;;0.67;0.43;;;10.60;99.90;;;;;;4881755;29;20215;-74
2023/12/26 09:42:37;;;;;;;1.37;0.33;;;10.50;99.90;;;;;;4881239;29;20836;-75
2023/12/26 09:45:05;;;;;;;2.10;0.63;;;10.60;99.90;;;;;;4881506;29;20210;-74
2023/12/26 09:47:32;;;;;;;5.57;0.43;;;10.80;99.90;;;;;;4880454;29;20270;-74
2023/12/26 09:50:00;;;;;;;2.23;0.60;;;11.00;99.90;;;;;;4881246;29;20251;-73
2023/12/26 09:52:28;;;;;;;2.13;0.80;;;11.40;99.90;;;;;;4881545;29;20219;-75
2023/12/26 09:54:56;;;;;;;2.53;0.43;;;11.50;99.90;;;;;;4880886;29;20220;-74
2023/12/26 09:57:23;;;;;;;2.20;0.50;;;11.30;99.90;;;;;;4881378;29;20271;-74
2023/12/26 09:59:53;;;;;;;3.70;0.70;;;11.10;99.90;;;;;;4880943;29;20318;-73
2023/12/26 10:02:20;;;;;;;6.20;0.80;;;11.10;99.90;;;;;;4881589;29;20242;-73
2023/12/26 10:04:47;;;;;;;2.90;0.50;;;11.10;99.90;;;;;;4881464;29;20215;-74
2023/12/26 10:07:18;;;;;;;1.93;0.53;;;11.10;99.90;;;;;;4881504;29;20242;-80
2023/12/26 10:09:45;;;;;;;2.77;0.60;;;11.20;99.90;;;;;;4882667;29;20215;-78
2023/12/26 10:12:12;;;;;;;2.10;0.60;;;11.20;99.90;;;;;;4876991;29;20207;-74
2023/12/26 10:14:40;;;;;;;2.77;0.77;;;11.00;99.90;;;;;;4878730;29;20215;-77
2023/12/26 10:17:09;;;;;;;2.50;0.50;;;10.90;99.90;;;;;;4878363;29;20233;-73
2023/12/26 10:19:38;;;;;;;3.17;0.70;;;10.90;99.90;;;;;;4878121;29;20205;-76
2023/12/26 10:22:05;;;;;;;1.97;0.40;;;10.70;99.90;;;;;;4878702;29;20267;-74
2023/12/26 10:24:32;;;;;;;4.70;1.23;;;10.70;99.90;;;;;;4879383;29;20255;-76
2023/12/26 10:27:00;;;;;;;2.30;0.67;;;10.70;99.90;;;;;;4878445;29;20277;-76
2023/12/26 10:29:27;;;;;;;3.17;0.40;;;10.50;99.90;;;;;;4879206;29;20216;-76
2023/12/26 10:31:55;;;;;;;1.13;0.40;;;10.40;99.90;;;;;;4879065;29;20636;-77
2023/12/26 10:34:30;;;;;;;3.90;0.47;;;10.40;99.90;;;;;;4879139;29;20222;-78
2023/12/26 10:37:01;;;;;;;2.00;0.43;;;10.30;99.90;;;;;;4878239;29;20233;-79
2023/12/26 10:39:30;;;;;;;5.90;0.57;;;10.30;99.90;;;;;;4879968;29;20276;-79
2023/12/26 10:41:59;;;;;;;1.37;0.30;;;10.20;99.90;;;;;;4881006;29;20220;-75
2023/12/26 10:44:47;;;;;;;3.87;0.50;;;10.20;99.90;;;;;;4880553;29;20207;-77
2023/12/26 10:47:15;;;;;;;2.87;0.50;;;10.10;99.90;;;;;;4877213;29;20238;-74
2023/12/26 10:49:46;;;;;;;3.57;0.40;;;10.10;99.90;;;;;;4879717;29;20694;-74
2023/12/26 10:52:16;;;;;;;4.33;0.43;;;10.10;99.90;;;;;;4879918;29;20586;-74
2023/12/26 10:54:45;;;;;;;1.07;0.33;;;10.10;99.90;;;;;;4875376;29;20259;-76
2023/12/26 10:57:12;;;;;;;7.00;0.70;;;10.00;99.90;;;;;;4879220;29;20231;-76
2023/12/26 11:02:44;;;;;;;1.67;0.47;;;10.00;99.90;;;;;;4877580;29;20218;-75
2023/12/26 11:05:11;;;;;;;2.00;0.40;;;10.00;99.90;;;;;;4879822;29;20262;-75
2023/12/26 11:07:38;;;;;;;3.37;1.13;;;10.00;99.90;;;;;;4880221;29;20325;-75
2023/12/26 11:10:06;;;;;;;1.30;0.37;;;10.10;99.90;;;;;;4879831;29;20218;-73
2023/12/26 11:12:32;;;;;;;5.33;0.80;;;10.20;99.90;;;;;;4880142;29;20204;-73
2023/12/26 11:14:59;;;;;;;6.80;0.50;;;10.20;99.90;;;;;;4879304;29;20243;-73
2023/12/26 11:17:26;;;;;;;3.00;0.50;;;10.20;99.90;;;;;;4880428;29;20219;-73
2023/12/26 11:19:52;;;;;;;1.30;0.60;;;10.20;99.90;;;;;;4880550;29;20222;-73
2023/12/26 11:22:20;;;;;;;2.73;0.40;;;10.30;99.90;;;;;;4880092;29;20319;-73
2023/12/26 11:24:47;;;;;;;3.00;0.67;;;10.30;99.90;;;;;;4879729;29;20298;-73
2023/12/26 11:27:13;;;;;;;4.50;0.40;;;10.40;99.90;;;;;;4879610;29;20270;-73
2023/12/26 11:29:40;;;;;;;7.20;1.53;;;10.50;99.90;;;;;;4879601;29;20208;-73
2023/12/26 11:32:07;;;;;;;4.83;0.60;;;10.40;99.90;;;;;;4880318;29;20666;-73
2023/12/26 11:34:33;;;;;;;1.80;0.40;;;10.50;99.90;;;;;;4880099;29;20273;-73
2023/12/26 11:37:02;;;;;;;2.40;0.50;;;10.50;99.90;;;;;;4879991;29;20231;-73
2023/12/26 11:39:31;;;;;;;2.43;0.47;;;10.50;99.90;;;;;;4879863;29;20223;-73
2023/12/26 11:41:57;;;;;;;1.37;0.40;;;10.40;99.90;;;;;;4880079;29;20223;-73
2023/12/26 11:44:23;;;;;;;1.23;0.30;;;10.30;99.90;;;;;;4879389;29;20685;-74
2023/12/26 11:46:50;;;;;;;5.67;0.77;;;10.30;99.90;;;;;;4878610;29;20235;-73
2023/12/26 11:49:17;;;;;;;2.97;0.80;;;10.30;99.90;;;;;;4879086;29;20635;-72
2023/12/26 11:51:43;;;;;;;1.53;0.67;;;10.30;99.90;;;;;;4879335;29;20223;-73
2023/12/26 11:54:10;;;;;;;4.40;0.57;;;10.30;99.90;;;;;;4869218;29;20693;-73
2023/12/26 11:56:38;;;;;;;3.73;0.60;;;10.30;99.90;;;;;;4880345;29;20239;-73
2023/12/26 11:59:04;;;;;;;2.63;0.57;;;10.20;99.90;;;;;;4879639;29;20219;-73
2023/12/26 12:01:32;;;;;;;1.60;0.40;;;10.20;99.90;;;;;;4879854;29;20215;-73
2023/12/26 12:03:58;;;;;;;2.00;0.40;;;10.30;99.90;;;;;;4879912;29;20212;-74
2023/12/26 12:06:27;;;;;;;5.43;1.13;;;10.30;99.90;;;;;;4880156;29;20262;-73
2023/12/26 12:09:04;;;;;;;3.40;0.60;;;10.30;99.90;;;;;;4879479;29;20207;-73
2023/12/26 12:11:30;;;;;;;3.97;0.40;;;10.20;99.90;;;;;;4879073;29;20254;-74
2023/12/26 12:13:58;;;;;;;0.97;0.50;;;10.20;99.90;;;;;;4879675;29;20267;-72
2023/12/26 12:16:26;;;;;;;1.73;0.53;;;10.20;99.90;;;;;;4879054;29;20753;-73
2023/12/26 12:19:01;;;;;;;3.67;0.50;;;10.10;99.90;;;;;;4879076;29;20587;-73
2023/12/26 12:21:38;;;;;;;1.60;0.40;;;10.00;99.90;;;;;;4878728;29;20233;-72
2023/12/26 12:24:05;;;;;;;3.73;0.90;;;10.00;99.90;;;;;;4879623;29;20217;-73
2023/12/26 12:27:02;;;;;;;2.27;0.40;;;10.00;99.90;;;;;;4879309;29;20239;-72
2023/12/26 12:29:58;;;;;;;3.27;0.33;;;9.90;99.90;;;;;;4879060;29;20610;-72
2023/12/26 12:32:31;;;;;;;3.43;0.50;;;9.80;99.90;;;;;;4879271;29;20207;-73
2023/12/26 12:35:10;;;;;;;3.67;0.43;;;9.80;99.90;;;;;;4879308;29;20212;-72
2023/12/26 12:37:38;;;;;;;3.17;0.60;;;9.80;99.90;;;;;;4878620;29;20211;-73
2023/12/26 12:40:07;;;;;;;2.83;0.63;;;9.90;99.90;;;;;;4878714;29;20266;-73
2023/12/26 12:42:36;;;;;;;5.33;1.20;;;9.90;99.90;;;;;;4879093;29;20578;-73
2023/12/26 12:45:06;;;;;;;2.37;0.60;;;9.90;99.90;;;;;;4878501;29;20246;-73
2023/12/26 12:47:32;;;;;;;5.50;0.30;;;9.90;99.90;;;;;;4878494;29;20602;-72
2023/12/26 12:49:59;;;;;;;3.07;0.50;;;9.90;99.90;;;;;;4878697;29;20297;-73
2023/12/26 12:52:26;;;;;;;1.73;0.40;;;9.90;99.90;;;;;;4879077;29;20582;-73
2023/12/26 12:54:56;;;;;;;3.60;0.50;;;9.80;99.90;;;;;;4878870;29;20211;-73
2023/12/26 12:57:24;;;;;;;2.13;0.50;;;9.90;99.90;;;;;;4878719;29;20211;-73
2023/12/26 12:59:52;;;;;;;5.50;0.63;;;9.90;99.90;;;;;;4878950;29;20233;-72
2023/12/26 13:02:19;;;;;;;3.83;0.60;;;9.90;99.90;;;;;;4879172;29;20321;-73
2023/12/26 13:04:45;;;;;;;1.87;0.70;;;10.00;99.90;;;;;;4878825;29;20238;-73
2023/12/26 13:07:13;;;;;;;3.90;0.73;;;10.00;99.90;;;;;;4878535;29;20245;-73
2023/12/26 13:09:40;;;;;;;4.57;0.40;;;10.00;99.90;;;;;;4874799;29;20214;-75
2023/12/26 13:12:07;;;;;;;3.97;0.53;;;10.10;99.90;;;;;;4876323;29;20545;-74
2023/12/26 13:14:35;;;;;;;3.70;0.50;;;10.10;99.90;;;;;;4878269;29;20271;-73
2023/12/26 13:17:02;;;;;;;3.77;0.53;;;10.20;99.90;;;;;;4878440;29;20239;-75
2023/12/26 13:19:29;;;;;;;3.20;0.50;;;10.30;99.90;;;;;;4878499;29;20247;-76
2023/12/26 13:21:57;;;;;;;3.10;1.00;;;10.20;99.90;;;;;;4880025;29;20239;-73
2023/12/26 13:24:23;;;;;;;5.73;0.73;;;10.30;99.90;;;;;;4881821;29;20211;-73
2023/12/26 13:26:49;;;;;;;1.20;0.50;;;10.40;99.90;;;;;;4881588;29;20291;-72
2023/12/26 13:29:23;;;;;;;4.43;0.60;;;10.40;99.90;;;;;;4882153;29;20753;-73
2023/12/26 13:31:50;;;;;;;1.63;0.40;;;10.30;99.90;;;;;;4882802;29;20211;-73
2023/12/26 13:34:16;;;;;;;4.60;0.50;;;10.20;99.90;;;;;;4884254;29;20211;-75
2023/12/26 13:36:45;;;;;;;3.67;0.60;;;10.30;99.90;;;;;;4882462;29;20322;-74
2023/12/26 13:39:11;;;;;;;3.87;0.50;;;10.30;99.90;;;;;;4882347;29;20211;-74
2023/12/26 13:41:38;;;;;;;5.10;0.53;;;10.40;99.90;;;;;;4883635;29;20578;-75
2023/12/26 13:44:14;;;;;;;2.73;0.63;;;10.40;99.90;;;;;;4884840;29;20211;-73
2023/12/26 13:46:40;;;;;;;5.50;0.70;;;10.30;99.90;;;;;;4889900;29;20312;-73
2023/12/26 13:49:06;;;;;;;5.00;0.50;;;10.30;99.90;;;;;;4885662;29;20552;-76
2023/12/26 13:51:33;;;;;;;6.53;0.53;;;10.50;99.90;;;;;;4886309;29;20211;-73
2023/12/26 13:54:00;;;;;;;3.00;0.70;;;10.60;99.90;;;;;;4885572;29;20230;-72
2023/12/26 13:56:27;;;;;;;4.43;0.63;;;10.60;99.90;;;;;;4881907;29;20235;-77
2023/12/26 13:58:54;;;;;;;2.60;0.47;;;10.70;99.90;;;;;;4881535;29;20211;-71
2023/12/26 14:01:21;;;;;;;3.67;0.50;;;10.60;99.90;;;;;;4862682;29;20637;-71
2023/12/26 14:03:50;;;;;;;4.47;1.13;;;10.40;99.90;;;;;;4862827;29;20287;-71
2023/12/26 14:06:18;;;;;;;2.33;0.40;;;10.40;99.90;;;;;;4881114;29;20647;-71
2023/12/26 14:08:45;;;;;;;3.47;0.67;;;10.40;99.90;;;;;;4881233;29;20280;-71
2023/12/26 14:11:14;;;;;;;1.57;0.40;;;10.40;99.90;;;;;;4881039;29;20212;-72
2023/12/26 14:13:41;;;;;;;1.03;0.37;;;10.30;99.90;;;;;;4881164;29;20241;-71
2023/12/26 14:16:08;;;;;;;1.70;0.30;;;10.40;99.90;;;;;;4881372;29;20235;-74
2023/12/26 14:18:35;;;;;;;3.43;0.40;;;10.30;99.90;;;;;;4881075;29;20307;-73
2023/12/26 14:21:03;;;;;;;2.53;0.57;;;10.40;99.90;;;;;;4880935;29;20211;-74
2023/12/26 14:23:31;;;;;;;1.43;0.40;;;10.30;99.90;;;;;;4881229;29;20242;-73
2023/12/26 14:25:58;;;;;;;4.73;0.70;;;10.40;99.90;;;;;;4880889;29;20235;-71
2023/12/26 14:28:27;;;;;;;2.27;0.50;;;10.30;99.90;;;;;;4881167;29;20338;-73
2023/12/26 14:30:54;;;;;;;1.90;0.53;;;10.20;99.90;;;;;;4880785;29;20294;-76
2023/12/26 14:33:21;;;;;;;3.97;1.13;;;10.10;99.90;;;;;;4880218;29;20218;-72
2023/12/26 14:35:49;;;;;;;6.83;0.70;;;10.20;99.90;;;;;;4880765;29;20231;-75
2023/12/26 14:38:16;;;;;;;2.03;0.60;;;10.30;99.90;;;;;;4880769;29;20674;-72
2023/12/26 14:40:42;;;;;;;5.30;1.43;;;10.20;99.90;;;;;;4875482;29;20293;-72
2023/12/26 14:43:09;;;;;;;6.17;0.80;;;10.10;99.90;;;;;;4879401;29;20310;-71
2023/12/26 14:45:37;;;;;;;4.20;0.57;;;10.10;99.90;;;;;;4878769;29;20267;-72
2023/12/26 14:48:05;;;;;;;6.60;0.80;;;10.10;99.90;;;;;;4878456;29;20302;-73
2023/12/26 14:50:32;;;;;;;6.80;1.17;;;10.10;99.90;;;;;;4878903;29;20263;-71
2023/12/26 14:52:59;;;;;;;7.27;0.97;;;10.10;99.90;;;;;;4879514;29;20207;-70
2023/12/26 14:55:27;;;;;;;4.43;0.50;;;10.00;99.90;;;;;;4878660;29;20235;-72
2023/12/26 14:57:54;;;;;;;3.00;0.70;;;10.00;99.90;;;;;;4878873;29;20207;-72
2023/12/26 15:00:20;;;;;;;4.40;0.70;;;10.00;99.90;;;;;;4878653;29;20289;-71
2023/12/26 15:02:49;;;;;;;7.87;0.80;;;10.10;99.90;;;;;;4878580;29;20250;-71
2023/12/26 15:05:16;;;;;;;6.37;0.60;;;10.10;99.90;;;;;;4876186;29;20239;-73
2023/12/26 15:07:43;;;;;;;3.30;0.77;;;10.00;99.90;;;;;;4880527;29;20238;-72
2023/12/26 15:10:10;;;;;;;2.10;0.50;;;10.10;99.90;;;;;;4877558;29;20207;-72
2023/12/26 15:12:37;;;;;;;3.97;0.70;;;10.00;99.90;;;;;;4878617;29;20208;-72
2023/12/26 15:15:05;;;;;;;1.93;0.60;;;10.00;99.90;;;;;;4878738;29;20280;-73
2023/12/26 15:17:32;;;;;;;6.17;0.67;;;9.90;99.90;;;;;;4878119;29;20654;-75
2023/12/26 15:20:00;;;;;;;4.57;0.73;;;9.80;99.90;;;;;;4878215;29;20211;-72
2023/12/26 15:22:28;;;;;;;1.37;0.80;;;9.80;99.90;;;;;;4878164;29;20625;-72
2023/12/26 15:24:55;;;;;;;5.30;0.80;;;9.90;99.90;;;;;;4877456;29;20246;-74
2023/12/26 15:27:22;;;;;;;6.10;1.70;;;9.90;99.90;;;;;;4879822;29;20574;-72
2023/12/26 15:29:49;;;;;;;4.53;0.70;;;9.90;99.90;;;;;;4879542;29;20207;-75
2023/12/26 15:32:16;;;;;;;3.30;0.73;;;9.90;99.90;;;;;;4879847;29;20222;-75
2023/12/26 15:34:43;;;;;;;5.60;0.70;;;9.80;99.90;;;;;;4879850;29;20310;-75
2023/12/26 15:37:11;;;;;;;4.20;0.97;;;9.80;99.90;;;;;;4879841;29;20706;-77
2023/12/26 15:39:38;;;;;;;8.93;1.30;;;9.70;99.90;;;;;;4880184;29;20211;-76
2023/12/26 15:42:07;;;;;;;7.57;0.70;;;9.60;99.90;;;;;;4879783;29;20222;-74
2023/12/26 15:44:34;;;;;;;5.23;1.00;;;9.60;99.90;;;;;;4879452;29;20211;-73
2023/12/26 15:47:01;;;;;;;5.00;0.87;;;9.70;99.90;;;;;;4879353;29;20691;-73
2023/12/26 15:49:28;;;;;;;8.70;1.20;;;9.60;99.90;;;;;;4880436;29;20245;-74
2023/12/26 15:51:55;;;;;;;1.60;0.80;;;9.50;99.90;;;;;;4880010;29;20213;-75
2023/12/26 15:54:24;;;;;;;3.23;0.80;;;9.50;99.90;;;;;;4879879;29;20286;-73
2023/12/26 15:56:51;;;;;;;3.43;0.70;;;9.50;99.90;;;;;;4879620;29;20677;-75
2023/12/26 15:59:19;;;;;;;5.47;0.80;;;9.40;99.90;;;;;;4879387;29;20219;-76
2023/12/26 16:01:47;;;;;;;6.17;0.60;;;9.40;99.90;;;;;;4879358;29;20306;-76
2023/12/26 16:04:15;;;;;;;5.07;0.60;;;9.30;99.90;;;;;;4860787;29;20702;-76
2023/12/26 16:06:42;;;;;;;6.23;0.90;;;9.20;99.90;;;;;;4876489;29;20703;-76
2023/12/26 16:09:11;;;;;;;6.83;0.53;;;9.20;99.90;;;;;;4879543;29;20334;-76
2023/12/26 16:11:40;;;;;;;4.10;0.70;;;9.20;99.90;;;;;;4879401;29;20590;-75
2023/12/26 16:14:08;;;;;;;5.60;0.80;;;9.10;99.90;;;;;;4879027;29;20258;-76
2023/12/26 16:16:40;;;;;;;8.43;2.50;;;9.10;99.90;;;;;;4879571;29;20287;-77
2023/12/26 16:19:09;;;;;;;6.07;1.47;;;9.00;99.90;;;;;;4879274;29;20230;-76
2023/12/26 16:21:37;;;;;;;4.63;1.20;;;8.90;99.90;;;;;;4879157;29;20214;-77
2023/12/26 16:24:05;;;;;;;6.50;1.20;;;8.90;99.90;;;;;;4879316;29;20215;-75
2023/12/26 16:26:33;;;;;;;4.63;1.33;;;8.80;99.90;;;;;;4879067;29;20242;-76
2023/12/26 16:29:01;;;;;;;2.67;0.93;;;8.70;99.90;;;;;;4879060;29;20698;-76
2023/12/26 16:31:32;;;;;;;3.73;1.43;;;8.60;99.90;;;;;;4879155;29;20259;-75
2023/12/26 16:33:59;;;;;;;5.90;1.27;;;8.60;99.90;;;;;;4879405;29;20211;-75
2023/12/26 16:36:26;;;;;;;3.87;1.20;;;8.50;99.90;;;;;;4878902;29;20262;-74
2023/12/26 16:38:53;;;;;;;3.43;1.50;;;8.50;99.90;;;;;;4878752;29;20571;-73
2023/12/26 16:41:20;;;;;;;4.57;1.37;;;8.40;99.90;;;;;;4879066;29;20215;-73
2023/12/26 16:43:47;;;;;;;10.10;2.03;;;8.30;99.90;;;;;;4878779;29;20219;-77
2023/12/26 16:46:16;;;;;;;4.77;1.93;;;8.20;99.90;;;;;;4878417;29;20231;-76
2023/12/26 16:48:43;;;;;;;7.97;1.50;;;8.10;99.90;;;;;;4878643;29;20242;-76
2023/12/26 16:51:11;;;;;;;4.33;1.43;;;8.10;99.90;;;;;;4878490;29;20306;-77
2023/12/26 16:53:39;;;;;;;7.97;1.50;;;8.00;99.90;;;;;;4878523;29;20685;-76
2023/12/26 16:56:08;;;;;;;5.10;1.33;;;8.00;99.90;;;;;;4877771;29;20283;-73
2023/12/26 16:58:35;;;;;;;2.40;1.20;;;8.00;99.90;;;;;;4882191;29;20271;-76
2023/12/26 17:01:03;;;;;;;3.07;0.73;;;8.10;99.90;;;;;;4882031;29;20219;-72
2023/12/26 17:03:32;;;;;;;3.57;0.90;;;8.10;99.90;;;;;;4882869;29;20211;-72
2023/12/26 17:06:02;;;;;;;4.03;1.17;;;8.20;99.90;;;;;;4882284;29;20238;-72
2023/12/26 17:08:32;;;;;;;4.77;1.00;;;8.20;99.90;;;;;;4882302;29;20575;-72
2023/12/26 17:10:59;;;;;;;2.07;0.70;;;8.20;99.90;;;;;;4881967;29;20238;-74
2023/12/26 17:13:27;;;;;;;1.93;0.80;;;8.20;99.90;;;;;;4882125;29;20259;-76
2023/12/26 17:15:54;;;;;;;7.33;2.87;;;8.20;99.90;;;;;;4882066;29;20274;-77
2023/12/26 17:18:21;;;;;;;3.57;1.60;;;8.30;99.90;;;;;;4882045;29;20670;-77
2023/12/26 17:21:01;;;;;;;6.23;1.40;;;8.20;99.90;;;;;;4881502;29;20214;-73
2023/12/26 17:23:33;;;;;;;2.97;1.70;;;8.00;99.90;;;;;;4881358;29;20241;-76
2023/12/26 17:26:24;;;;;;;2.97;1.13;;;7.90;99.90;;;;;;4881395;29;20231;-75
2023/12/26 17:28:54;;;;;;;4.43;1.33;;;7.90;99.90;;;;;;4875018;29;20243;-71
2023/12/26 17:31:21;;;;;;;2.97;1.33;;;7.80;99.90;;;;;;4881882;29;20298;-75
2023/12/26 17:33:49;;;;;;;4.63;1.27;;;7.80;99.90;;;;;;4881868;29;20215;-76
2023/12/26 17:36:18;;;;;;;6.57;1.80;;;7.70;99.90;;;;;;4881695;29;20322;-74
2023/12/26 17:38:46;;;;;;;7.83;2.00;;;7.60;99.90;;;;;;4881692;29;20207;-74
2023/12/26 17:41:13;;;;;;;6.00;2.07;;;7.60;99.90;;;;;;4882161;29;20207;-72
2023/12/26 17:43:44;;;;;;;8.57;2.20;;;7.50;99.90;;;;;;4881869;29;20211;-72
2023/12/26 17:46:12;;;;;;;4.80;2.20;;;7.40;99.90;;;;;;4881405;29;20235;-71
2023/12/26 17:48:40;;;;;;;9.87;2.20;;;7.40;99.90;;;;;;4881764;29;20239;-72
2023/12/26 17:51:07;;;;;;;8.37;2.20;;;7.30;99.90;;;;;;4881090;29;20322;-73
2023/12/26 17:53:36;;;;;;;8.00;2.53;;;7.20;99.90;;;;;;4881340;29;20254;-73
2023/12/26 17:56:03;;;;;;;6.77;2.53;;;7.10;99.90;;;;;;4881105;29;20234;-72
2023/12/26 17:58:31;;;;;;;10.70;2.80;;;7.30;99.90;;;;;;4883641;29;20283;-70
2023/12/26 18:00:58;;;;;;;7.33;3.70;;;7.30;99.90;;;;;;4883926;29;20215;-72
2023/12/26 18:03:28;;;;;;;5.40;2.70;;;7.20;99.90;;;;;;4883845;29;20268;-72
2023/12/26 18:05:55;;;;;;;11.57;3.37;;;7.10;99.90;;;;;;4882232;29;20239;-70
2023/12/26 18:08:22;;;;;;;11.03;3.63;;;7.00;99.90;;;;;;4882330;29;20235;-71
2023/12/26 18:10:51;;;;;;;6.50;3.17;;;7.00;99.90;;;;;;4881623;29;20283;-70
2023/12/26 18:13:18;;;;;;;12.23;4.03;;;7.00;99.90;;;;;;4882054;29;20245;-70
2023/12/26 18:15:46;;;;;;;13.10;5.07;;;7.00;99.90;;;;;;4882550;29;20270;-70
2023/12/26 18:18:13;;;;;;;15.03;3.93;;;6.90;99.90;;;;;;4884937;29;20261;-72
2023/12/26 18:20:40;;;;;;;8.53;3.10;;;6.70;99.90;;;;;;4886773;29;20215;-70
2023/12/26 18:23:09;;;;;;;11.90;3.07;;;6.60;99.90;;;;;;4887827;29;20249;-70
2023/12/26 18:25:36;;;;;;;10.00;3.07;;;6.50;99.90;;;;;;4887717;29;20223;-72
2023/12/26 18:28:05;;;;;;;9.17;3.23;;;6.50;99.90;;;;;;4887956;29;20242;-70
2023/12/26 18:30:32;;;;;;;12.63;3.70;;;6.40;99.90;;;;;;4890076;29;20214;-71
2023/12/26 18:33:00;;;;;;;12.47;3.70;;;6.30;99.90;;;;;;4886839;29;20223;-73
2023/12/26 18:35:27;;;;;;;10.83;3.37;;;6.30;99.90;;;;;;4886028;29;20265;-72
2023/12/26 18:37:54;;;;;;;8.73;3.73;;;6.20;99.90;;;;;;4884135;29;20211;-70
2023/12/26 18:40:22;;;;;;;15.07;7.00;;;6.10;99.90;;;;;;4886975;29;20215;-70
2023/12/26 18:42:49;;;;;;;9.97;3.63;;;6.10;99.90;;;;;;4881849;29;20207;-69
2023/12/26 18:45:18;;;;;;;12.50;4.33;;;6.20;99.90;;;;;;4880502;29;20326;-70
2023/12/26 18:47:45;;;;;;;13.93;4.80;;;6.10;99.90;;;;;;4880614;29;20215;-69
2023/12/26 18:50:12;;;;;;;15.53;4.50;;;6.10;99.90;;;;;;4880462;29;20219;-70
2023/12/26 18:52:39;;;;;;;10.43;4.63;;;6.00;99.90;;;;;;4880931;29;20242;-70
2023/12/26 18:55:07;;;;;;;10.43;4.80;;;5.90;99.90;;;;;;4880655;29;20211;-70
2023/12/26 18:57:35;;;;;;;11.60;4.20;;;5.80;99.90;;;;;;4878081;29;20286;-70
2023/12/26 19:00:03;;;;;;;11.60;4.53;;;5.80;99.90;;;;;;4879520;29;20223;-69
2023/12/26 19:02:32;;;;;;;8.70;4.07;;;5.70;99.90;;;;;;4879932;29;20226;-69
2023/12/26 19:04:59;;;;;;;8.67;4.37;;;5.70;99.90;;;;;;4879058;29;20215;-69
2023/12/26 19:07:26;;;;;;;8.67;4.00;;;5.70;99.90;;;;;;4882669;29;20304;-70
2023/12/26 19:09:53;;;;;;;11.17;4.93;;;5.60;99.90;;;;;;4880390;29;20262;-71
2023/12/26 19:12:21;;;;;;;10.00;4.40;;;5.50;99.90;;;;;;4880118;29;20211;-70
2023/12/26 19:14:48;;;;;;;10.87;4.20;;;5.40;99.90;;;;;;4867165;29;20211;-71
2023/12/26 19:17:17;;;;;;;14.97;4.70;;;5.50;99.90;;;;;;4879576;29;20941;-73
2023/12/26 19:19:46;;;;;;;14.30;4.90;;;5.40;99.90;;;;;;4879061;29;20211;-70
2023/12/26 19:22:13;;;;;;;16.90;5.37;;;5.50;99.90;;;;;;4879933;29;20243;-72
2023/12/26 19:24:40;;;;;;;14.13;5.07;;;5.60;99.90;;;;;;4879705;29;20259;-72
2023/12/26 19:27:07;;;;;;;11.53;4.90;;;5.60;99.90;;;;;;4879955;29;20679;-70
2023/12/26 19:29:35;;;;;;;11.70;4.07;;;5.50;99.90;;;;;;4873313;29;20278;-70
2023/12/26 19:32:02;;;;;;;9.40;3.73;;;5.50;99.90;;;;;;4879154;29;20207;-71
2023/12/26 19:34:29;;;;;;;11.07;4.37;;;5.50;99.90;;;;;;4879013;29;20203;-70
2023/12/26 19:36:57;;;;;;;10.07;4.37;;;5.40;99.90;;;;;;4879176;29;20254;-71
2023/12/26 19:39:25;;;;;;;15.30;5.20;;;5.30;99.90;;;;;;4879628;29;20238;-72
2023/12/26 19:41:52;;;;;;;13.43;6.73;;;5.30;99.90;;;;;;4879316;29;20314;-72
2023/12/26 19:44:19;;;;;;;15.80;5.50;;;5.30;99.90;;;;;;4879502;29;20632;-70
2023/12/26 19:46:46;;;;;;;11.50;4.90;;;5.20;99.90;;;;;;4879176;29;20258;-72
2023/12/26 19:49:14;;;;;;;12.60;4.43;;;5.30;99.90;;;;;;4879504;29;20330;-70
2023/12/26 19:51:40;;;;;;;15.53;4.17;;;5.20;99.90;;;;;;4879293;29;20246;-70
2023/12/26 19:54:09;;;;;;;14.27;4.30;;;5.20;99.90;;;;;;4879474;29;20247;-69
2023/12/26 19:56:40;;;;;;;8.63;4.17;;;5.10;99.90;;;;;;4879319;29;20317;-71
2023/12/26 19:59:08;;;;;;;12.73;4.47;;;5.20;99.90;;;;;;4898053;23;20237;-75
2023/12/26 20:01:40;;;;;;;18.77;5.57;;;5.10;99.90;;;;;;4897961;29;20211;-76
2023/12/26 20:04:07;;;;;;;10.87;4.53;;;5.10;99.90;;;;;;4881320;29;20302;-76
2023/12/26 20:06:34;;;;;;;7.87;3.63;;;5.20;99.90;;;;;;4904213;29;20285;-76
2023/12/26 20:09:01;;;;;;;12.50;3.80;;;5.20;99.90;;;;;;4911318;29;20229;-75
2023/12/26 20:11:30;;;;;;;14.70;4.87;;;5.20;99.90;;;;;;4916103;29;20205;-77
2023/12/26 20:13:56;;;;;;;12.17;6.00;;;5.10;99.90;;;;;;4916155;29;20269;-76
2023/12/26 20:16:23;;;;;;;14.30;5.77;;;5.00;99.90;;;;;;4916487;29;20289;-76
2023/12/26 20:18:51;;;;;;;12.30;5.03;;;4.90;99.90;;;;;;4916034;29;20277;-74
2023/12/26 20:21:18;;;;;;;18.60;5.30;;;4.80;99.90;;;;;;4916174;29;20608;-74
2023/12/26 20:23:45;;;;;;;14.30;5.50;;;4.80;99.90;;;;;;4916104;29;20217;-75
2023/12/26 20:26:14;;;;;;;15.70;5.23;;;4.90;99.90;;;;;;4915934;29;20222;-75
2023/12/26 20:28:42;;;;;;;11.80;5.13;;;4.80;99.90;;;;;;4916202;29;20316;-75
2023/12/26 20:31:11;;;;;;;20.27;7.13;;;4.80;99.90;;;;;;4916601;29;20305;-76
2023/12/26 20:33:38;;;;;;;16.37;5.13;;;4.70;99.90;;;;;;4919854;29;20206;-76
2023/12/26 20:36:05;;;;;;;15.83;4.87;;;4.60;99.90;;;;;;4918072;29;20704;-75
2023/12/26 20:38:32;;;;;;;19.07;6.17;;;4.70;99.90;;;;;;4908341;29;20297;-74
2023/12/26 20:40:59;;;;;;;17.63;6.27;;;4.70;99.90;;;;;;4919991;29;20213;-74
2023/12/26 20:43:27;;;;;;;13.90;5.87;;;4.70;99.90;;;;;;4919801;29;20216;-76
2023/12/26 20:45:55;;;;;;;13.10;4.80;;;4.70;99.90;;;;;;4919735;29;20236;-75
2023/12/26 20:48:24;;;;;;;19.30;5.40;;;4.60;99.90;;;;;;4918811;29;20277;-75
2023/12/26 20:50:52;;;;;;;15.63;5.47;;;4.70;99.90;;;;;;4919617;29;20209;-75
2023/12/26 20:53:19;;;;;;;17.47;5.87;;;4.70;99.90;;;;;;4919414;29;20205;-75
2023/12/26 20:55:46;;;;;;;13.70;5.40;;;4.70;99.90;;;;;;4919803;29;20257;-75